sensor_id;sensor_type;location;lat;lon;timestamp;P1;durP1;ratioP1;P2;durP2;ratioP2
13171;SDS011;6651;53.200;10.432;2022-10-16T00:01:45;6.15;;;4.22;;
13171;SDS011;6651;53.200;10.432;2022-10-16T00:04:11;5.43;;;3.30;;
13171;SDS011;6651;53.200;10.432;2022-10-16T00:06:37;4.90;;;4.13;;
13171;SDS011;6651;53.200;10.432;2022-10-16T00:09:03;5.75;;;3.80;;
13171;SDS011;6651;53.200;10.432;2022-10-16T00:11:29;4.57;;;4.15;;
13171;SDS011;6651;53.200;10.432;2022-10-16T00:13:59;4.90;;;4.10;;
13171;SDS011;6651;53.200;10.432;2022-10-16T00:16:26;5.35;;;4.15;;
13171;SDS011;6651;53.200;10.432;2022-10-16T00:18:53;5.20;;;4.07;;
13171;SDS011;6651;53.200;10.432;2022-10-16T00:21:20;4.85;;;3.83;;
13171;SDS011;6651;53.200;10.432;2022-10-16T00:23:51;8.05;;;4.70;;
13171;SDS011;6651;53.200;10.432;2022-10-16T00:26:18;4.93;;;4.43;;
13171;SDS011;6651;53.200;10.432;2022-10-16T00:28:45;5.93;;;4.38;;
13171;SDS011;6651;53.200;10.432;2022-10-16T00:31:12;5.75;;;4.47;;
13171;SDS011;6651;53.200;10.432;2022-10-16T00:33:38;4.45;;;3.95;;
13171;SDS011;6651;53.200;10.432;2022-10-16T00:36:06;5.05;;;4.28;;
13171;SDS011;6651;53.200;10.432;2022-10-16T00:38:33;4.93;;;4.30;;
13171;SDS011;6651;53.200;10.432;2022-10-16T00:40:58;6.30;;;4.13;;
13171;SDS011;6651;53.200;10.432;2022-10-16T00:46:15;5.50;;;3.58;;
13171;SDS011;6651;53.200;10.432;2022-10-16T00:48:45;5.47;;;3.67;;
13171;SDS011;6651;53.200;10.432;2022-10-16T00:51:25;6.55;;;3.85;;
13171;SDS011;6651;53.200;10.432;2022-10-16T00:53:56;4.60;;;3.63;;
13171;SDS011;6651;53.200;10.432;2022-10-16T00:56:22;4.57;;;3.28;;
13171;SDS011;6651;53.200;10.432;2022-10-16T00:58:48;4.72;;;3.10;;
13171;SDS011;6651;53.200;10.432;2022-10-16T01:01:14;3.97;;;3.20;;
13171;SDS011;6651;53.200;10.432;2022-10-16T01:03:39;3.83;;;3.00;;
13171;SDS011;6651;53.200;10.432;2022-10-16T01:08:53;3.47;;;2.70;;
13171;SDS011;6651;53.200;10.432;2022-10-16T01:11:42;3.50;;;2.90;;
13171;SDS011;6651;53.200;10.432;2022-10-16T01:14:45;5.50;;;3.03;;
13171;SDS011;6651;53.200;10.432;2022-10-16T01:17:23;3.92;;;2.65;;
13171;SDS011;6651;53.200;10.432;2022-10-16T01:22:57;5.60;;;2.78;;
13171;SDS011;6651;53.200;10.432;2022-10-16T01:25:54;2.97;;;2.53;;
13171;SDS011;6651;53.200;10.432;2022-10-16T01:28:32;2.78;;;2.30;;
13171;SDS011;6651;53.200;10.432;2022-10-16T01:31:04;4.20;;;2.42;;
13171;SDS011;6651;53.200;10.432;2022-10-16T01:33:34;2.78;;;2.13;;
13171;SDS011;6651;53.200;10.432;2022-10-16T01:36:12;3.45;;;2.30;;
13171;SDS011;6651;53.200;10.432;2022-10-16T01:38:41;3.15;;;2.20;;
13171;SDS011;6651;53.200;10.432;2022-10-16T01:41:10;3.55;;;2.33;;
13171;SDS011;6651;53.200;10.432;2022-10-16T01:43:52;4.95;;;2.47;;
13171;SDS011;6651;53.200;10.432;2022-10-16T01:46:24;2.50;;;2.30;;
13171;SDS011;6651;53.200;10.432;2022-10-16T01:48:51;3.42;;;2.40;;
13171;SDS011;6651;53.200;10.432;2022-10-16T01:51:17;2.38;;;2.17;;
13171;SDS011;6651;53.200;10.432;2022-10-16T01:53:47;6.97;;;2.50;;
13171;SDS011;6651;53.200;10.432;2022-10-16T01:56:17;5.80;;;2.30;;
13171;SDS011;6651;53.200;10.432;2022-10-16T01:58:46;4.18;;;2.30;;
13171;SDS011;6651;53.200;10.432;2022-10-16T02:01:15;4.65;;;2.20;;
13171;SDS011;6651;53.200;10.432;2022-10-16T02:03:44;4.60;;;2.08;;
13171;SDS011;6651;53.200;10.432;2022-10-16T02:06:11;5.63;;;2.58;;
13171;SDS011;6651;53.200;10.432;2022-10-16T02:08:37;6.32;;;2.38;;
13171;SDS011;6651;53.200;10.432;2022-10-16T02:11:05;3.33;;;2.20;;
13171;SDS011;6651;53.200;10.432;2022-10-16T02:13:35;4.93;;;2.13;;
13171;SDS011;6651;53.200;10.432;2022-10-16T02:16:04;3.75;;;2.38;;
13171;SDS011;6651;53.200;10.432;2022-10-16T02:18:31;4.45;;;2.28;;
13171;SDS011;6651;53.200;10.432;2022-10-16T02:20:58;2.70;;;2.10;;
13171;SDS011;6651;53.200;10.432;2022-10-16T02:23:35;3.28;;;2.13;;
13171;SDS011;6651;53.200;10.432;2022-10-16T02:26:05;4.40;;;2.30;;
13171;SDS011;6651;53.200;10.432;2022-10-16T02:28:37;4.30;;;2.03;;
13171;SDS011;6651;53.200;10.432;2022-10-16T02:31:09;2.42;;;1.83;;
13171;SDS011;6651;53.200;10.432;2022-10-16T02:33:38;4.35;;;2.15;;
13171;SDS011;6651;53.200;10.432;2022-10-16T02:36:07;3.42;;;1.98;;
13171;SDS011;6651;53.200;10.432;2022-10-16T02:38:33;3.47;;;2.10;;
13171;SDS011;6651;53.200;10.432;2022-10-16T02:40:59;5.38;;;2.10;;
13171;SDS011;6651;53.200;10.432;2022-10-16T02:43:26;3.80;;;2.00;;
13171;SDS011;6651;53.200;10.432;2022-10-16T02:45:51;3.42;;;1.95;;
13171;SDS011;6651;53.200;10.432;2022-10-16T02:48:17;3.35;;;1.75;;
13171;SDS011;6651;53.200;10.432;2022-10-16T02:50:43;2.75;;;2.00;;
13171;SDS011;6651;53.200;10.432;2022-10-16T02:53:08;2.45;;;1.75;;
13171;SDS011;6651;53.200;10.432;2022-10-16T02:55:34;2.97;;;2.10;;
13171;SDS011;6651;53.200;10.432;2022-10-16T02:57:59;3.30;;;1.85;;
13171;SDS011;6651;53.200;10.432;2022-10-16T03:00:25;5.05;;;2.05;;
13171;SDS011;6651;53.200;10.432;2022-10-16T03:02:50;4.45;;;2.08;;
13171;SDS011;6651;53.200;10.432;2022-10-16T03:05:16;3.38;;;2.10;;
13171;SDS011;6651;53.200;10.432;2022-10-16T03:07:42;5.10;;;2.13;;
13171;SDS011;6651;53.200;10.432;2022-10-16T03:10:08;3.72;;;1.85;;
13171;SDS011;6651;53.200;10.432;2022-10-16T03:12:33;2.65;;;1.90;;
13171;SDS011;6651;53.200;10.432;2022-10-16T03:14:59;4.72;;;2.30;;
13171;SDS011;6651;53.200;10.432;2022-10-16T03:17:25;2.38;;;1.70;;
13171;SDS011;6651;53.200;10.432;2022-10-16T03:19:51;5.13;;;2.00;;
13171;SDS011;6651;53.200;10.432;2022-10-16T03:22:16;4.18;;;2.13;;
13171;SDS011;6651;53.200;10.432;2022-10-16T03:24:42;4.47;;;1.92;;
13171;SDS011;6651;53.200;10.432;2022-10-16T03:27:10;3.35;;;2.20;;
13171;SDS011;6651;53.200;10.432;2022-10-16T03:29:36;3.35;;;1.90;;
13171;SDS011;6651;53.200;10.432;2022-10-16T03:32:02;4.90;;;2.00;;
13171;SDS011;6651;53.200;10.432;2022-10-16T03:34:27;4.35;;;1.98;;
13171;SDS011;6651;53.200;10.432;2022-10-16T03:36:53;4.45;;;2.20;;
13171;SDS011;6651;53.200;10.432;2022-10-16T03:39:19;2.90;;;1.98;;
13171;SDS011;6651;53.200;10.432;2022-10-16T03:41:44;5.68;;;2.30;;
13171;SDS011;6651;53.200;10.432;2022-10-16T03:44:11;4.10;;;2.00;;
13171;SDS011;6651;53.200;10.432;2022-10-16T03:46:37;3.47;;;2.00;;
13171;SDS011;6651;53.200;10.432;2022-10-16T03:49:02;3.22;;;2.10;;
13171;SDS011;6651;53.200;10.432;2022-10-16T03:51:28;4.50;;;2.15;;
13171;SDS011;6651;53.200;10.432;2022-10-16T03:53:53;3.75;;;1.90;;
13171;SDS011;6651;53.200;10.432;2022-10-16T03:56:19;5.43;;;2.10;;
13171;SDS011;6651;53.200;10.432;2022-10-16T03:58:45;4.18;;;2.15;;
13171;SDS011;6651;53.200;10.432;2022-10-16T04:01:10;3.72;;;2.10;;
13171;SDS011;6651;53.200;10.432;2022-10-16T04:03:36;6.57;;;2.15;;
13171;SDS011;6651;53.200;10.432;2022-10-16T04:06:01;4.10;;;2.20;;
13171;SDS011;6651;53.200;10.432;2022-10-16T04:08:27;3.22;;;2.10;;
13171;SDS011;6651;53.200;10.432;2022-10-16T04:10:53;3.08;;;2.00;;
13171;SDS011;6651;53.200;10.432;2022-10-16T04:13:18;4.35;;;1.90;;
13171;SDS011;6651;53.200;10.432;2022-10-16T04:15:44;4.82;;;2.05;;
13171;SDS011;6651;53.200;10.432;2022-10-16T04:18:10;3.78;;;1.90;;
13171;SDS011;6651;53.200;10.432;2022-10-16T04:20:36;5.15;;;2.22;;
13171;SDS011;6651;53.200;10.432;2022-10-16T04:23:02;4.80;;;2.13;;
13171;SDS011;6651;53.200;10.432;2022-10-16T04:25:27;3.88;;;2.05;;
13171;SDS011;6651;53.200;10.432;2022-10-16T04:27:53;6.25;;;2.20;;
13171;SDS011;6651;53.200;10.432;2022-10-16T04:30:20;5.03;;;2.20;;
13171;SDS011;6651;53.200;10.432;2022-10-16T04:32:50;5.38;;;2.15;;
13171;SDS011;6651;53.200;10.432;2022-10-16T04:35:17;4.80;;;2.35;;
13171;SDS011;6651;53.200;10.432;2022-10-16T04:37:43;5.25;;;2.38;;
13171;SDS011;6651;53.200;10.432;2022-10-16T04:40:09;4.88;;;2.40;;
13171;SDS011;6651;53.200;10.432;2022-10-16T04:42:34;4.45;;;2.58;;
13171;SDS011;6651;53.200;10.432;2022-10-16T04:45:00;4.05;;;2.38;;
13171;SDS011;6651;53.200;10.432;2022-10-16T04:47:25;6.10;;;2.80;;
13171;SDS011;6651;53.200;10.432;2022-10-16T04:49:51;6.20;;;2.30;;
13171;SDS011;6651;53.200;10.432;2022-10-16T04:52:17;3.72;;;2.60;;
13171;SDS011;6651;53.200;10.432;2022-10-16T04:54:43;6.47;;;2.45;;
13171;SDS011;6651;53.200;10.432;2022-10-16T04:57:10;4.43;;;2.15;;
13171;SDS011;6651;53.200;10.432;2022-10-16T04:59:36;4.97;;;2.42;;
13171;SDS011;6651;53.200;10.432;2022-10-16T05:02:02;6.55;;;2.50;;
13171;SDS011;6651;53.200;10.432;2022-10-16T05:04:27;5.80;;;2.53;;
13171;SDS011;6651;53.200;10.432;2022-10-16T05:06:53;8.15;;;2.33;;
13171;SDS011;6651;53.200;10.432;2022-10-16T05:09:18;6.25;;;2.80;;
13171;SDS011;6651;53.200;10.432;2022-10-16T05:11:44;5.20;;;2.60;;
13171;SDS011;6651;53.200;10.432;2022-10-16T05:14:10;9.48;;;2.58;;
13171;SDS011;6651;53.200;10.432;2022-10-16T05:16:35;6.40;;;3.10;;
13171;SDS011;6651;53.200;10.432;2022-10-16T05:19:01;7.70;;;2.80;;
13171;SDS011;6651;53.200;10.432;2022-10-16T05:21:26;4.35;;;2.45;;
13171;SDS011;6651;53.200;10.432;2022-10-16T05:23:53;5.90;;;2.58;;
13171;SDS011;6651;53.200;10.432;2022-10-16T05:26:19;7.20;;;2.80;;
13171;SDS011;6651;53.200;10.432;2022-10-16T05:28:45;4.85;;;2.40;;
13171;SDS011;6651;53.200;10.432;2022-10-16T05:31:12;7.65;;;2.70;;
13171;SDS011;6651;53.200;10.432;2022-10-16T05:33:37;4.03;;;2.40;;
13171;SDS011;6651;53.200;10.432;2022-10-16T05:36:04;5.75;;;2.38;;
13171;SDS011;6651;53.200;10.432;2022-10-16T05:38:32;4.32;;;2.33;;
13171;SDS011;6651;53.200;10.432;2022-10-16T05:40:58;4.05;;;2.60;;
13171;SDS011;6651;53.200;10.432;2022-10-16T05:43:24;4.72;;;2.53;;
13171;SDS011;6651;53.200;10.432;2022-10-16T05:45:53;5.05;;;2.53;;
13171;SDS011;6651;53.200;10.432;2022-10-16T05:48:23;4.93;;;2.53;;
13171;SDS011;6651;53.200;10.432;2022-10-16T05:50:55;6.10;;;2.90;;
13171;SDS011;6651;53.200;10.432;2022-10-16T05:53:26;5.38;;;2.50;;
13171;SDS011;6651;53.200;10.432;2022-10-16T05:55:52;3.13;;;2.22;;
13171;SDS011;6651;53.200;10.432;2022-10-16T05:58:18;5.53;;;2.50;;
13171;SDS011;6651;53.200;10.432;2022-10-16T06:00:44;5.88;;;2.85;;
13171;SDS011;6651;53.200;10.432;2022-10-16T06:03:10;5.15;;;2.58;;
13171;SDS011;6651;53.200;10.432;2022-10-16T06:05:35;4.13;;;2.33;;
13171;SDS011;6651;53.200;10.432;2022-10-16T06:08:01;3.42;;;2.38;;
13171;SDS011;6651;53.200;10.432;2022-10-16T06:10:26;7.00;;;2.60;;
13171;SDS011;6651;53.200;10.432;2022-10-16T06:12:53;4.65;;;2.40;;
13171;SDS011;6651;53.200;10.432;2022-10-16T06:15:19;5.25;;;2.50;;
13171;SDS011;6651;53.200;10.432;2022-10-16T06:17:45;6.95;;;2.60;;
13171;SDS011;6651;53.200;10.432;2022-10-16T06:20:10;3.95;;;2.63;;
13171;SDS011;6651;53.200;10.432;2022-10-16T06:22:36;3.83;;;2.50;;
13171;SDS011;6651;53.200;10.432;2022-10-16T06:25:02;7.50;;;2.63;;
13171;SDS011;6651;53.200;10.432;2022-10-16T06:27:27;5.57;;;2.42;;
13171;SDS011;6651;53.200;10.432;2022-10-16T06:29:53;5.60;;;2.70;;
13171;SDS011;6651;53.200;10.432;2022-10-16T06:32:19;3.47;;;2.45;;
13171;SDS011;6651;53.200;10.432;2022-10-16T06:34:45;8.02;;;2.80;;
13171;SDS011;6651;53.200;10.432;2022-10-16T06:37:11;5.18;;;2.40;;
13171;SDS011;6651;53.200;10.432;2022-10-16T06:39:36;7.00;;;2.78;;
13171;SDS011;6651;53.200;10.432;2022-10-16T06:42:02;6.53;;;2.70;;
13171;SDS011;6651;53.200;10.432;2022-10-16T06:44:27;4.90;;;2.65;;
13171;SDS011;6651;53.200;10.432;2022-10-16T06:46:53;5.30;;;2.72;;
13171;SDS011;6651;53.200;10.432;2022-10-16T06:49:19;9.90;;;2.92;;
13171;SDS011;6651;53.200;10.432;2022-10-16T06:51:47;6.18;;;2.97;;
13171;SDS011;6651;53.200;10.432;2022-10-16T06:54:14;4.65;;;2.72;;
13171;SDS011;6651;53.200;10.432;2022-10-16T06:56:40;6.53;;;2.95;;
13171;SDS011;6651;53.200;10.432;2022-10-16T06:59:06;6.03;;;3.20;;
13171;SDS011;6651;53.200;10.432;2022-10-16T07:01:31;6.30;;;2.92;;
13171;SDS011;6651;53.200;10.432;2022-10-16T07:03:57;5.00;;;2.67;;
13171;SDS011;6651;53.200;10.432;2022-10-16T07:06:24;5.53;;;2.85;;
13171;SDS011;6651;53.200;10.432;2022-10-16T07:08:50;5.13;;;3.03;;
13171;SDS011;6651;53.200;10.432;2022-10-16T07:11:18;6.88;;;3.00;;
13171;SDS011;6651;53.200;10.432;2022-10-16T07:13:45;4.40;;;2.80;;
13171;SDS011;6651;53.200;10.432;2022-10-16T07:16:18;6.25;;;3.05;;
13171;SDS011;6651;53.200;10.432;2022-10-16T07:18:45;5.07;;;2.88;;
13171;SDS011;6651;53.200;10.432;2022-10-16T07:21:14;5.65;;;3.22;;
13171;SDS011;6651;53.200;10.432;2022-10-16T07:23:45;7.05;;;3.40;;
13171;SDS011;6651;53.200;10.432;2022-10-16T07:26:32;5.88;;;3.17;;
13171;SDS011;6651;53.200;10.432;2022-10-16T07:28:59;4.75;;;3.03;;
13171;SDS011;6651;53.200;10.432;2022-10-16T07:31:25;4.05;;;2.88;;
13171;SDS011;6651;53.200;10.432;2022-10-16T07:33:52;6.80;;;3.20;;
13171;SDS011;6651;53.200;10.432;2022-10-16T07:36:18;5.22;;;2.75;;
13171;SDS011;6651;53.200;10.432;2022-10-16T07:38:45;7.10;;;2.67;;
13171;SDS011;6651;53.200;10.432;2022-10-16T07:41:12;4.60;;;2.63;;
13171;SDS011;6651;53.200;10.432;2022-10-16T07:43:40;3.70;;;2.45;;
13171;SDS011;6651;53.200;10.432;2022-10-16T07:46:10;7.47;;;2.60;;
13171;SDS011;6651;53.200;10.432;2022-10-16T07:48:35;3.80;;;2.42;;
13171;SDS011;6651;53.200;10.432;2022-10-16T07:51:02;3.83;;;2.40;;
13171;SDS011;6651;53.200;10.432;2022-10-16T07:53:29;5.95;;;2.58;;
13171;SDS011;6651;53.200;10.432;2022-10-16T07:56:03;3.95;;;2.45;;
13171;SDS011;6651;53.200;10.432;2022-10-16T07:58:30;3.60;;;2.40;;
13171;SDS011;6651;53.200;10.432;2022-10-16T08:00:57;3.75;;;2.33;;
13171;SDS011;6651;53.200;10.432;2022-10-16T08:03:24;3.50;;;2.40;;
13171;SDS011;6651;53.200;10.432;2022-10-16T08:05:50;3.20;;;2.15;;
13171;SDS011;6651;53.200;10.432;2022-10-16T08:08:17;5.10;;;2.40;;
13171;SDS011;6651;53.200;10.432;2022-10-16T08:10:43;6.20;;;2.33;;
13171;SDS011;6651;53.200;10.432;2022-10-16T08:13:09;4.20;;;2.22;;
13171;SDS011;6651;53.200;10.432;2022-10-16T08:15:35;3.35;;;2.25;;
13171;SDS011;6651;53.200;10.432;2022-10-16T08:18:02;3.47;;;2.25;;
13171;SDS011;6651;53.200;10.432;2022-10-16T08:20:29;3.20;;;2.08;;
13171;SDS011;6651;53.200;10.432;2022-10-16T08:22:56;4.38;;;2.08;;
13171;SDS011;6651;53.200;10.432;2022-10-16T08:25:25;3.28;;;1.90;;
13171;SDS011;6651;53.200;10.432;2022-10-16T08:27:51;3.63;;;2.10;;
13171;SDS011;6651;53.200;10.432;2022-10-16T08:30:17;4.28;;;1.83;;
13171;SDS011;6651;53.200;10.432;2022-10-16T08:32:44;4.53;;;2.08;;
13171;SDS011;6651;53.200;10.432;2022-10-16T08:35:10;3.65;;;2.00;;
13171;SDS011;6651;53.200;10.432;2022-10-16T08:37:36;4.15;;;1.83;;
13171;SDS011;6651;53.200;10.432;2022-10-16T08:40:03;2.88;;;2.08;;
13171;SDS011;6651;53.200;10.432;2022-10-16T08:51:02;5.25;;;1.92;;
13171;SDS011;6651;53.200;10.432;2022-10-16T08:53:43;3.05;;;1.95;;
13171;SDS011;6651;53.200;10.432;2022-10-16T08:56:14;2.38;;;1.77;;
13171;SDS011;6651;53.200;10.432;2022-10-16T08:58:39;2.90;;;1.77;;
13171;SDS011;6651;53.200;10.432;2022-10-16T09:01:10;4.32;;;1.92;;
13171;SDS011;6651;53.200;10.432;2022-10-16T09:04:02;4.15;;;2.00;;
13171;SDS011;6651;53.200;10.432;2022-10-16T09:17:27;3.90;;;1.98;;
13171;SDS011;6651;53.200;10.432;2022-10-16T09:22:51;2.65;;;1.67;;
13171;SDS011;6651;53.200;10.432;2022-10-16T09:25:25;1.40;;;1.30;;
13171;SDS011;6651;53.200;10.432;2022-10-16T09:27:52;7.00;;;1.85;;
13171;SDS011;6651;53.200;10.432;2022-10-16T09:30:19;3.90;;;1.30;;
13171;SDS011;6651;53.200;10.432;2022-10-16T09:32:46;5.13;;;1.60;;
13171;SDS011;6651;53.200;10.432;2022-10-16T09:35:18;3.28;;;1.40;;
13171;SDS011;6651;53.200;10.432;2022-10-16T09:37:47;2.55;;;1.30;;
13171;SDS011;6651;53.200;10.432;2022-10-16T09:45:56;3.10;;;1.40;;
13171;SDS011;6651;53.200;10.432;2022-10-16T09:48:28;2.58;;;1.20;;
13171;SDS011;6651;53.200;10.432;2022-10-16T09:51:15;2.13;;;1.35;;
13171;SDS011;6651;53.200;10.432;2022-10-16T09:53:45;3.00;;;1.42;;
13171;SDS011;6651;53.200;10.432;2022-10-16T09:56:20;2.78;;;1.20;;
13171;SDS011;6651;53.200;10.432;2022-10-16T09:58:51;2.42;;;1.23;;
13171;SDS011;6651;53.200;10.432;2022-10-16T10:01:19;2.63;;;1.30;;
13171;SDS011;6651;53.200;10.432;2022-10-16T10:03:46;3.28;;;1.40;;
13171;SDS011;6651;53.200;10.432;2022-10-16T10:06:23;2.22;;;1.15;;
13171;SDS011;6651;53.200;10.432;2022-10-16T10:08:58;2.70;;;1.17;;
13171;SDS011;6651;53.200;10.432;2022-10-16T10:17:07;2.30;;;1.02;;
13171;SDS011;6651;53.200;10.432;2022-10-16T10:19:42;6.35;;;1.30;;
13171;SDS011;6651;53.200;10.432;2022-10-16T10:22:16;2.08;;;1.30;;
13171;SDS011;6651;53.200;10.432;2022-10-16T10:27:39;2.15;;;1.10;;
13171;SDS011;6651;53.200;10.432;2022-10-16T10:30:34;5.32;;;1.48;;
13171;SDS011;6651;53.200;10.432;2022-10-16T10:38:49;2.15;;;1.08;;
13171;SDS011;6651;53.200;10.432;2022-10-16T10:46:50;2.38;;;1.15;;
13171;SDS011;6651;53.200;10.432;2022-10-16T11:06:44;2.72;;;1.13;;
13171;SDS011;6651;53.200;10.432;2022-10-16T11:16:48;3.03;;;1.10;;
13171;SDS011;6651;53.200;10.432;2022-10-16T11:25:00;4.78;;;1.50;;
13171;SDS011;6651;53.200;10.432;2022-10-16T11:27:39;3.47;;;1.48;;
13171;SDS011;6651;53.200;10.432;2022-10-16T11:30:14;3.92;;;1.30;;
13171;SDS011;6651;53.200;10.432;2022-10-16T11:35:25;2.63;;;1.30;;
13171;SDS011;6651;53.200;10.432;2022-10-16T11:38:14;3.78;;;1.33;;
13171;SDS011;6651;53.200;10.432;2022-10-16T11:40:48;4.05;;;1.27;;
13171;SDS011;6651;53.200;10.432;2022-10-16T11:43:37;2.92;;;1.30;;
13171;SDS011;6651;53.200;10.432;2022-10-16T11:46:12;3.97;;;1.33;;
13171;SDS011;6651;53.200;10.432;2022-10-16T11:51:33;3.90;;;1.25;;
13171;SDS011;6651;53.200;10.432;2022-10-16T11:57:11;3.85;;;1.17;;
13171;SDS011;6651;53.200;10.432;2022-10-16T12:00:04;5.43;;;1.38;;
13171;SDS011;6651;53.200;10.432;2022-10-16T12:08:24;5.85;;;1.67;;
13171;SDS011;6651;53.200;10.432;2022-10-16T12:10:50;2.40;;;1.15;;
13171;SDS011;6651;53.200;10.432;2022-10-16T12:13:37;2.83;;;1.30;;
13171;SDS011;6651;53.200;10.432;2022-10-16T12:18:42;3.17;;;1.40;;
13171;SDS011;6651;53.200;10.432;2022-10-16T12:21:33;4.00;;;1.73;;
13171;SDS011;6651;53.200;10.432;2022-10-16T12:24:02;3.30;;;1.33;;
13171;SDS011;6651;53.200;10.432;2022-10-16T12:26:48;4.07;;;1.52;;
13171;SDS011;6651;53.200;10.432;2022-10-16T12:29:37;2.33;;;1.00;;
13171;SDS011;6651;53.200;10.432;2022-10-16T12:32:19;3.95;;;1.23;;
13171;SDS011;6651;53.200;10.432;2022-10-16T12:34:56;3.85;;;1.20;;
13171;SDS011;6651;53.200;10.432;2022-10-16T12:37:24;2.30;;;1.20;;
13171;SDS011;6651;53.200;10.432;2022-10-16T12:39:55;3.08;;;1.30;;
13171;SDS011;6651;53.200;10.432;2022-10-16T12:45:00;2.83;;;1.08;;
13171;SDS011;6651;53.200;10.432;2022-10-16T12:47:52;2.40;;;1.10;;
13171;SDS011;6651;53.200;10.432;2022-10-16T12:50:24;2.53;;;1.13;;
13171;SDS011;6651;53.200;10.432;2022-10-16T12:53:01;2.35;;;1.15;;
13171;SDS011;6651;53.200;10.432;2022-10-16T12:55:52;2.60;;;1.20;;
13171;SDS011;6651;53.200;10.432;2022-10-16T13:10:52;3.13;;;1.30;;
13171;SDS011;6651;53.200;10.432;2022-10-16T13:21:47;3.33;;;1.38;;
13171;SDS011;6651;53.200;10.432;2022-10-16T13:24:25;5.45;;;1.52;;
13171;SDS011;6651;53.200;10.432;2022-10-16T13:27:07;2.30;;;1.23;;
13171;SDS011;6651;53.200;10.432;2022-10-16T13:29:35;4.93;;;1.40;;
13171;SDS011;6651;53.200;10.432;2022-10-16T13:32:06;2.75;;;1.40;;
13171;SDS011;6651;53.200;10.432;2022-10-16T13:34:43;2.20;;;1.23;;
13171;SDS011;6651;53.200;10.432;2022-10-16T13:37:23;2.30;;;1.23;;
13171;SDS011;6651;53.200;10.432;2022-10-16T13:39:49;3.47;;;1.15;;
13171;SDS011;6651;53.200;10.432;2022-10-16T13:42:29;5.45;;;1.52;;
13171;SDS011;6651;53.200;10.432;2022-10-16T13:44:55;4.45;;;1.27;;
13171;SDS011;6651;53.200;10.432;2022-10-16T13:49:58;3.85;;;1.60;;
13171;SDS011;6651;53.200;10.432;2022-10-16T13:52:28;2.95;;;1.25;;
13171;SDS011;6651;53.200;10.432;2022-10-16T13:54:54;2.50;;;1.45;;
13171;SDS011;6651;53.200;10.432;2022-10-16T13:57:26;3.05;;;1.40;;
13171;SDS011;6651;53.200;10.432;2022-10-16T13:59:52;4.80;;;1.30;;
13171;SDS011;6651;53.200;10.432;2022-10-16T14:02:34;5.28;;;1.40;;
13171;SDS011;6651;53.200;10.432;2022-10-16T14:05:08;3.10;;;1.35;;
13171;SDS011;6651;53.200;10.432;2022-10-16T14:07:35;3.08;;;1.58;;
13171;SDS011;6651;53.200;10.432;2022-10-16T14:10:03;4.85;;;1.63;;
13171;SDS011;6651;53.200;10.432;2022-10-16T14:12:31;3.72;;;1.40;;
13171;SDS011;6651;53.200;10.432;2022-10-16T14:14:57;5.22;;;1.20;;
13171;SDS011;6651;53.200;10.432;2022-10-16T14:17:26;4.50;;;1.50;;
13171;SDS011;6651;53.200;10.432;2022-10-16T14:19:53;5.53;;;1.42;;
13171;SDS011;6651;53.200;10.432;2022-10-16T14:22:32;3.60;;;1.33;;
13171;SDS011;6651;53.200;10.432;2022-10-16T14:25:18;3.55;;;1.67;;
13171;SDS011;6651;53.200;10.432;2022-10-16T14:27:56;4.43;;;1.70;;
13171;SDS011;6651;53.200;10.432;2022-10-16T14:30:25;3.70;;;1.60;;
13171;SDS011;6651;53.200;10.432;2022-10-16T14:32:52;5.57;;;1.60;;
13171;SDS011;6651;53.200;10.432;2022-10-16T14:35:33;3.92;;;1.60;;
13171;SDS011;6651;53.200;10.432;2022-10-16T14:38:04;4.30;;;1.90;;
13171;SDS011;6651;53.200;10.432;2022-10-16T14:45:49;3.47;;;1.60;;
13171;SDS011;6651;53.200;10.432;2022-10-16T14:48:20;5.88;;;1.75;;
13171;SDS011;6651;53.200;10.432;2022-10-16T14:50:46;4.72;;;1.40;;
13171;SDS011;6651;53.200;10.432;2022-10-16T14:53:11;4.57;;;1.55;;
13171;SDS011;6651;53.200;10.432;2022-10-16T14:55:38;4.55;;;1.55;;
13171;SDS011;6651;53.200;10.432;2022-10-16T14:58:05;6.07;;;1.90;;
13171;SDS011;6651;53.200;10.432;2022-10-16T15:00:34;3.97;;;1.63;;
13171;SDS011;6651;53.200;10.432;2022-10-16T15:03:00;5.97;;;1.67;;
13171;SDS011;6651;53.200;10.432;2022-10-16T15:05:26;5.28;;;1.45;;
13171;SDS011;6651;53.200;10.432;2022-10-16T15:07:53;4.43;;;1.42;;
13171;SDS011;6651;53.200;10.432;2022-10-16T15:10:20;4.93;;;1.40;;
13171;SDS011;6651;53.200;10.432;2022-10-16T15:12:48;4.07;;;1.52;;
13171;SDS011;6651;53.200;10.432;2022-10-16T15:17:51;5.05;;;1.65;;
13171;SDS011;6651;53.200;10.432;2022-10-16T15:20:28;3.47;;;1.40;;
13171;SDS011;6651;53.200;10.432;2022-10-16T15:22:58;4.32;;;1.70;;
13171;SDS011;6651;53.200;10.432;2022-10-16T15:25:29;3.70;;;1.60;;
13171;SDS011;6651;53.200;10.432;2022-10-16T15:28:02;4.55;;;1.70;;
13171;SDS011;6651;53.200;10.432;2022-10-16T15:30:28;3.22;;;1.38;;
13171;SDS011;6651;53.200;10.432;2022-10-16T15:32:54;6.30;;;1.50;;
13171;SDS011;6651;53.200;10.432;2022-10-16T15:35:19;4.50;;;1.45;;
13171;SDS011;6651;53.200;10.432;2022-10-16T15:37:46;3.90;;;1.48;;
13171;SDS011;6651;53.200;10.432;2022-10-16T15:40:12;2.55;;;1.45;;
13171;SDS011;6651;53.200;10.432;2022-10-16T15:42:39;3.13;;;1.48;;
13171;SDS011;6651;53.200;10.432;2022-10-16T15:45:04;2.78;;;1.25;;
13171;SDS011;6651;53.200;10.432;2022-10-16T15:47:31;3.25;;;1.67;;
13171;SDS011;6651;53.200;10.432;2022-10-16T15:49:57;3.80;;;1.50;;
13171;SDS011;6651;53.200;10.432;2022-10-16T15:52:22;4.47;;;1.50;;
13171;SDS011;6651;53.200;10.432;2022-10-16T15:54:48;4.65;;;1.42;;
13171;SDS011;6651;53.200;10.432;2022-10-16T15:57:14;3.42;;;1.42;;
13171;SDS011;6651;53.200;10.432;2022-10-16T15:59:39;4.32;;;1.45;;
13171;SDS011;6651;53.200;10.432;2022-10-16T16:02:05;6.55;;;1.73;;
13171;SDS011;6651;53.200;10.432;2022-10-16T16:04:31;4.85;;;1.50;;
13171;SDS011;6651;53.200;10.432;2022-10-16T16:06:57;2.90;;;1.50;;
13171;SDS011;6651;53.200;10.432;2022-10-16T16:09:22;5.25;;;1.55;;
13171;SDS011;6651;53.200;10.432;2022-10-16T16:11:48;3.15;;;1.30;;
13171;SDS011;6651;53.200;10.432;2022-10-16T16:14:14;5.57;;;1.65;;
13171;SDS011;6651;53.200;10.432;2022-10-16T16:16:40;4.45;;;1.55;;
13171;SDS011;6651;53.200;10.432;2022-10-16T16:19:07;3.70;;;1.58;;
13171;SDS011;6651;53.200;10.432;2022-10-16T16:21:33;3.35;;;1.70;;
13171;SDS011;6651;53.200;10.432;2022-10-16T16:23:59;2.97;;;1.50;;
13171;SDS011;6651;53.200;10.432;2022-10-16T16:26:28;4.75;;;1.90;;
13171;SDS011;6651;53.200;10.432;2022-10-16T16:28:59;4.53;;;2.00;;
13171;SDS011;6651;53.200;10.432;2022-10-16T16:31:31;5.40;;;2.00;;
13171;SDS011;6651;53.200;10.432;2022-10-16T16:34:05;4.88;;;1.83;;
13171;SDS011;6651;53.200;10.432;2022-10-16T16:36:31;5.47;;;2.30;;
13171;SDS011;6651;53.200;10.432;2022-10-16T16:38:57;3.55;;;1.90;;
13171;SDS011;6651;53.200;10.432;2022-10-16T16:41:24;4.03;;;2.22;;
13171;SDS011;6651;53.200;10.432;2022-10-16T16:43:54;4.22;;;2.50;;
13171;SDS011;6651;53.200;10.432;2022-10-16T16:46:21;3.38;;;2.35;;
13171;SDS011;6651;53.200;10.432;2022-10-16T16:48:47;9.40;;;3.75;;
13171;SDS011;6651;53.200;10.432;2022-10-16T16:51:15;7.75;;;3.45;;
13171;SDS011;6651;53.200;10.432;2022-10-16T16:53:44;7.47;;;3.38;;
13171;SDS011;6651;53.200;10.432;2022-10-16T16:56:14;7.97;;;2.97;;
13171;SDS011;6651;53.200;10.432;2022-10-16T16:58:40;9.77;;;4.43;;
13171;SDS011;6651;53.200;10.432;2022-10-16T17:01:06;7.22;;;3.80;;
13171;SDS011;6651;53.200;10.432;2022-10-16T17:03:34;7.50;;;4.50;;
13171;SDS011;6651;53.200;10.432;2022-10-16T17:06:02;7.43;;;4.03;;
13171;SDS011;6651;53.200;10.432;2022-10-16T17:08:29;5.25;;;3.20;;
13171;SDS011;6651;53.200;10.432;2022-10-16T17:10:55;3.60;;;2.30;;
13171;SDS011;6651;53.200;10.432;2022-10-16T17:13:25;7.10;;;2.58;;
13171;SDS011;6651;53.200;10.432;2022-10-16T17:15:53;8.05;;;2.40;;
13171;SDS011;6651;53.200;10.432;2022-10-16T17:18:20;6.63;;;2.33;;